CDT,Max TemperatureF,Mean TemperatureF,Min TemperatureF,Max Dew PointF,MeanDew PointF,Min DewpointF,Max Humidity, Mean Humidity, Min Humidity, Max Sea Level PressureIn, Mean Sea Level PressureIn, Min Sea Level PressureIn, Max VisibilityMiles, Mean VisibilityMiles, Min VisibilityMiles, Max Wind SpeedMPH, Mean Wind SpeedMPH, Max Gust SpeedMPH,PrecipitationIn, CloudCover, Events, WindDirDegrees
2012-10-1,78,64,51,48,41,28,72,45,24,29.92,29.88,29.83,10,10,7,12,4,21,0.00,0,,12
2012-10-2,77,62,48,50,45,37,72,53,34,29.95,29.91,29.86,10,10,7,10,6,,0.00,0,,352
2012-10-3,80,63,46,52,42,32,82,50,17,29.98,29.93,29.88,10,10,7,16,4,22,0.00,0,,182
2012-10-4,62,55,48,48,41,34,82,60,36,30.27,30.13,29.96,10,10,1,18,9,28,0.06,2,Rain,294
2012-10-5,50,42,35,34,29,21,75,57,32,30.30,30.26,30.21,10,10,10,13,7,17,0.00,2,,301
2012-10-6,50,39,28,28,25,21,74,56,35,30.32,30.28,30.24,10,10,10,16,8,23,0.00,3,,309
2012-10-7,57,42,26,28,20,9,80,49,14,30.29,30.21,30.10,10,10,10,12,6,21,0.00,0,,253
2012-10-8,68,52,35,36,30,25,75,46,21,30.10,29.99,29.89,10,10,10,24,12,32,0.00,0,,199
2012-10-9,62,50,39,43,37,30,76,59,39,30.10,29.94,29.87,10,10,10,17,12,26,0.01,2,Rain,257
2012-10-10,62,48,33,32,21,5,75,45,10,30.25,30.17,30.11,10,10,2,14,8,24,0.00,0,,254
2012-10-11,75,60,44,43,32,25,61,42,23,30.33,30.13,30.06,10,10,5,21,12,28,0.00,2,,242
2012-10-12,62,50,39,46,24,1,82,41,9,30.42,30.30,30.10,10,10,7,17,11,22,0.05,4,Rain,95
2012-10-13,73,64,55,64,57,46,88,79,72,30.06,29.85,29.65,10,7,1,24,12,32,1.62,7,Rain,174
2012-10-14,68,59,50,63,51,41,88,74,52,29.96,29.74,29.53,10,9,3,24,13,40,0.70,5,Rain,286
2012-10-15,71,56,42,46,41,36,81,58,29,30.03,29.96,29.86,10,9,0,8,5,,0.00,0,,215
2012-10-16,80,66,53,52,48,45,77,56,30,29.86,29.60,29.47,10,10,10,21,11,30,0.00,0,,194
2012-10-17,66,58,51,55,47,34,82,63,47,29.54,29.46,29.40,10,10,10,21,12,31,0.04,4,Rain,247
2012-10-18,51,48,46,43,35,25,87,63,35,29.51,29.46,29.42,10,9,2,29,14,40,0.30,7,Rain,262
2012-10-19,51,48,44,45,42,39,87,81,71,29.79,29.65,29.48,10,8,2,18,13,26,0.07,8,Rain,295
2012-10-20,62,54,46,46,43,41,82,73,52,29.88,29.83,29.79,10,10,10,10,5,,0.00,4,,184
2012-10-21,82,65,48,64,54,43,82,70,48,29.87,29.83,29.79,10,10,10,17,9,24,0.00,2,,151
2012-10-22,75,70,66,68,64,61,88,78,73,29.86,29.82,29.78,10,9,2,15,7,,0.00,5,Rain,123
2012-10-23,78,72,66,66,64,61,88,77,65,29.84,29.79,29.73,10,10,3,21,11,23,0.00,5,Rain,173
2012-10-24,82,76,69,66,65,63,83,72,58,29.83,29.77,29.69,10,10,10,21,14,28,0.00,6,,176
2012-10-25,75,57,39,64,44,28,88,74,65,30.29,29.91,29.60,10,9,2,24,19,34,0.00,7,Rain,299
2012-10-26,46,39,32,30,28,27,81,64,46,30.45,30.40,30.29,10,10,10,18,10,28,0.00,3,,328
2012-10-27,46,38,30,30,26,25,86,65,46,30.42,30.36,30.30,10,10,7,7,2,,0.00,3,,2
2012-10-28,50,40,30,28,23,18,80,55,28,30.37,30.32,30.28,10,7,0,7,1,,0.00,0,,94
2012-10-29,51,42,33,34,29,21,75,62,44,30.33,30.29,30.19,10,6,0,13,4,24,0.00,4,,139
2012-10-30,55,42,28,30,28,23,86,58,29,30.19,30.09,30.01,10,10,10,12,5,17,0.00,1,,2
2012-10-31,55,44,33,30,23,12,75,50,18,30.07,30.03,29.99,10,10,10,10,7,,0.00,0,,316